createdAt,value
2018-04-12T00:02:19.090Z,33.93
2018-04-12T00:05:21.541Z,32.90
2018-04-12T00:08:23.998Z,34.23
2018-04-12T00:11:27.210Z,35.67
2018-04-12T00:14:29.671Z,33.50
2018-04-12T00:17:32.885Z,33.77
2018-04-12T00:20:35.334Z,38.00
2018-04-12T00:23:38.559Z,39.53
2018-04-12T00:26:41.005Z,42.53
2018-04-12T00:29:44.229Z,44.47
2018-04-12T00:32:46.681Z,46.57
2018-04-12T00:35:49.897Z,48.47
2018-04-12T00:38:52.375Z,44.47
2018-04-12T00:41:54.821Z,45.83
2018-04-12T00:44:58.050Z,45.93
2018-04-12T00:48:00.502Z,47.10
2018-04-12T00:51:03.722Z,44.67
2018-04-12T00:54:06.177Z,54.20
2018-04-12T00:57:09.406Z,50.37
2018-04-12T01:00:11.866Z,52.23
2018-04-12T01:03:14.336Z,51.40
2018-04-12T01:06:16.789Z,54.40
2018-04-12T01:09:20.025Z,52.43
2018-04-12T01:12:22.477Z,55.60
2018-04-12T01:15:24.950Z,55.73
2018-04-12T01:18:28.178Z,57.33
2018-04-12T01:21:30.642Z,55.60
2018-04-12T01:24:33.097Z,57.43
2018-04-12T01:27:36.330Z,55.93
2018-04-12T01:30:38.785Z,60.47
2018-04-12T01:33:41.253Z,61.90
2018-04-12T01:36:43.694Z,62.30
2018-04-12T01:39:46.159Z,57.90
2018-04-12T01:42:48.613Z,56.93
2018-04-12T01:45:51.090Z,55.57
2018-04-12T01:48:53.566Z,60.90
2018-04-12T01:51:56.029Z,60.73
2018-04-12T01:54:58.506Z,56.57
2018-04-12T01:58:03.694Z,61.50
2018-04-12T02:01:06.169Z,55.37
2018-04-12T02:04:08.618Z,58.67
2018-04-12T02:07:11.070Z,57.10
2018-04-12T02:10:13.533Z,58.50
2018-04-12T02:13:15.989Z,60.73
2018-04-12T02:16:18.443Z,57.03
2018-04-12T02:19:20.902Z,61.10
2018-04-12T02:22:23.354Z,60.47
2018-04-12T02:25:25.814Z,62.73
2018-04-12T02:28:29.037Z,58.47
2018-04-12T02:31:31.493Z,64.53
2018-04-12T02:34:33.945Z,68.27
2018-04-12T02:37:37.158Z,58.47
2018-04-12T02:40:39.622Z,61.10
2018-04-12T02:43:42.077Z,63.57
2018-04-12T02:46:44.546Z,62.87
2018-04-12T02:49:47.002Z,60.67
2018-04-12T02:52:49.453Z,61.57
2018-04-12T02:55:51.913Z,65.30
2018-04-12T02:58:55.141Z,61.40
2018-04-12T03:01:57.589Z,61.30
2018-04-12T03:05:00.046Z,59.70
2018-04-12T03:08:03.266Z,58.80
2018-04-12T03:11:05.721Z,61.23
2018-04-12T03:14:08.941Z,61.63
2018-04-12T03:17:11.389Z,58.33
2018-04-12T03:20:14.617Z,65.40
2018-04-12T03:23:17.073Z,64.60
2018-04-12T03:26:20.292Z,66.30
2018-04-12T03:29:22.766Z,65.57
2018-04-12T03:32:25.213Z,62.00
2018-04-12T03:35:28.437Z,62.60
2018-04-12T03:38:30.902Z,61.37
2018-04-12T03:41:33.355Z,66.33
2018-04-12T03:44:35.809Z,62.80
2018-04-12T03:47:38.261Z,64.50
2018-04-12T03:50:40.735Z,64.80
2018-04-12T03:53:43.181Z,60.23
2018-04-12T03:56:46.391Z,63.30
2018-04-12T03:59:48.861Z,62.57
2018-04-12T04:02:51.313Z,66.47
2018-04-12T04:05:54.558Z,66.47
2018-04-12T04:08:57.029Z,64.60
2018-04-12T04:11:59.482Z,60.43
2018-04-12T04:15:22.659Z,63.07
2018-04-12T04:18:36.926Z,64.37
2018-04-12T04:21:39.377Z,60.60
2018-04-12T04:24:41.910Z,62.17
2018-04-12T04:27:44.361Z,63.20
2018-04-12T04:30:46.867Z,60.70
2018-04-12T04:33:49.279Z,58.73
2018-04-12T04:36:51.734Z,61.80
2018-04-12T04:39:55.000Z,57.80
2018-04-12T04:42:57.396Z,60.20
2018-04-12T04:45:59.849Z,63.63
2018-04-12T04:49:02.316Z,59.23
2018-04-12T04:52:04.801Z,57.33
2018-04-12T04:55:07.256Z,57.00
2018-04-12T04:58:09.694Z,56.40
2018-04-12T05:01:12.917Z,57.33
2018-04-12T05:04:15.384Z,57.93
2018-04-12T05:07:17.850Z,53.00
2018-04-12T05:10:21.066Z,53.93
2018-04-12T05:13:23.509Z,49.70
2018-04-12T05:16:26.729Z,52.77
2018-04-12T05:19:29.190Z,52.73
2018-04-12T05:22:32.409Z,53.07
2018-04-12T05:25:34.865Z,50.27
2018-04-12T05:28:37.313Z,50.17
2018-04-12T05:31:39.773Z,50.80
2018-04-12T05:34:42.229Z,49.50
2018-04-12T05:37:44.686Z,53.03
2018-04-12T05:40:47.145Z,50.07
2018-04-12T05:43:50.362Z,49.23
2018-04-12T05:46:52.818Z,50.43
2018-04-12T05:49:55.274Z,48.53
2018-04-12T05:52:57.722Z,49.50
2018-04-12T05:56:00.171Z,58.83
2018-04-12T05:59:02.625Z,56.23
2018-04-12T06:02:05.850Z,46.60
2018-04-12T06:05:08.306Z,45.40
2018-04-12T06:08:10.750Z,46.03
2018-04-12T06:11:31.277Z,42.40
2018-04-12T06:14:33.747Z,41.23
2018-04-12T06:17:36.970Z,39.97
2018-04-12T06:20:39.430Z,41.80
2018-04-12T06:23:41.874Z,41.80
2018-04-12T06:26:44.332Z,39.97
2018-04-12T06:29:46.789Z,35.03
2018-04-12T06:36:24.829Z,35.77
2018-04-12T06:39:27.301Z,35.57
2018-04-12T06:42:29.758Z,35.17
2018-04-12T06:45:32.214Z,35.27
2018-04-12T06:48:34.665Z,30.57
2018-04-12T06:51:37.536Z,32.73
2018-04-12T06:54:40.110Z,35.50
2018-04-12T06:57:42.668Z,32.13
2018-04-12T07:00:45.423Z,30.90
2018-04-12T07:03:48.105Z,35.20
2018-04-12T07:06:50.581Z,34.13
2018-04-12T07:09:53.038Z,36.23
2018-04-12T07:12:56.253Z,35.27
2018-04-12T07:15:58.710Z,33.63
2018-04-12T07:19:01.926Z,35.27
2018-04-12T07:22:04.393Z,34.17
2018-04-12T07:25:06.844Z,31.43
2018-04-12T07:28:10.070Z,38.00
2018-04-12T07:31:12.530Z,34.80
2018-04-12T07:34:15.741Z,34.10
2018-04-12T07:37:18.192Z,34.13
2018-04-12T07:40:21.418Z,33.13
2018-04-12T07:43:23.869Z,32.27
2018-04-12T07:46:27.093Z,32.80
2018-04-12T07:49:29.546Z,29.97
2018-04-12T07:52:32.770Z,31.27
2018-04-12T07:55:35.225Z,33.23
2018-04-12T07:58:37.674Z,30.67
2018-04-12T08:01:40.125Z,31.00
2018-04-12T08:04:42.577Z,30.23
2018-04-12T08:07:45.031Z,31.80
2018-04-12T08:10:47.487Z,33.10
2018-04-12T08:13:50.702Z,30.90
2018-04-12T08:16:53.170Z,29.47
2018-04-12T08:19:56.407Z,31.27
2018-04-12T08:22:58.855Z,30.80
2018-04-12T08:26:01.313Z,32.37
2018-04-12T08:29:03.764Z,31.17
2018-04-12T08:32:06.310Z,34.80
2018-04-12T08:35:08.769Z,31.10
2018-04-12T08:38:11.219Z,33.23
2018-04-12T08:41:14.450Z,32.50
2018-04-12T08:44:16.897Z,33.07
2018-04-12T08:47:20.133Z,33.40
2018-04-12T08:50:22.582Z,34.13
2018-04-12T08:53:25.038Z,31.00
2018-04-12T08:56:27.485Z,32.90
2018-04-12T08:59:29.938Z,35.73
2018-04-12T09:02:32.389Z,32.30
2018-04-12T09:05:34.846Z,34.27
2018-04-12T09:08:38.054Z,36.37
2018-04-12T09:11:40.510Z,34.97
2018-04-12T09:14:44.710Z,35.60
2018-04-12T09:17:47.170Z,40.03
2018-04-12T09:20:49.634Z,40.97
2018-04-12T09:23:52.079Z,42.57
2018-04-12T09:26:54.533Z,44.17
2018-04-12T09:29:57.762Z,48.23
2018-04-12T09:33:00.222Z,47.67
2018-04-12T09:36:02.669Z,45.27
2018-04-12T09:39:05.933Z,45.97
2018-04-12T09:42:08.393Z,48.40
2018-04-12T09:45:10.846Z,48.70
2018-04-12T09:48:14.067Z,46.10
2018-04-12T09:51:16.521Z,47.23
2018-04-12T09:54:18.965Z,55.97
2018-04-12T09:57:21.422Z,48.80
2018-04-12T10:00:26.844Z,48.37
2018-04-12T10:03:29.311Z,47.90
2018-04-12T10:06:37.392Z,49.10
2018-04-12T10:09:40.600Z,52.53
2018-04-12T10:12:43.053Z,48.57
2018-04-12T10:15:46.277Z,51.97
2018-04-12T10:18:48.721Z,52.70
2018-04-12T10:21:51.941Z,49.40
2018-04-12T10:24:55.369Z,50.33
2018-04-12T10:27:57.832Z,50.77
2018-04-12T10:31:00.280Z,53.77
2018-04-12T10:34:03.498Z,52.47
2018-04-12T10:37:05.954Z,49.43
2018-04-12T10:40:09.188Z,48.57
2018-04-12T10:43:11.633Z,52.07
2018-04-12T10:46:14.089Z,52.87
2018-04-12T10:49:16.537Z,49.43
2018-04-12T10:52:18.993Z,48.63
2018-04-12T10:55:21.440Z,48.13
2018-04-12T10:58:23.893Z,47.10
2018-04-12T11:01:27.119Z,44.97
2018-04-12T11:04:29.570Z,44.73
2018-04-12T11:07:32.794Z,42.80
2018-04-12T11:10:35.241Z,44.70
2018-04-12T11:13:38.465Z,43.17
2018-04-12T11:16:40.939Z,47.43
2018-04-12T11:19:43.381Z,49.53
2018-04-12T11:22:46.597Z,42.07
2018-04-12T11:25:49.065Z,42.20
2018-04-12T11:28:51.587Z,40.40
2018-04-12T11:31:54.040Z,45.00
2018-04-12T11:34:56.481Z,46.07
2018-04-12T11:37:59.710Z,46.73
2018-04-12T11:41:02.170Z,45.63
2018-04-12T11:44:05.385Z,41.43
2018-04-12T11:47:07.845Z,42.60
2018-04-12T11:50:11.064Z,43.57
2018-04-12T11:53:13.513Z,42.93
2018-04-12T11:56:15.970Z,41.03
2018-04-12T11:59:18.413Z,40.27
2018-04-12T12:02:20.892Z,43.37
2018-04-12T12:05:23.327Z,40.30
2018-04-12T12:08:25.786Z,42.40
2018-04-12T12:11:29.006Z,39.10
2018-04-12T12:14:31.454Z,41.10
2018-04-12T12:17:34.697Z,44.67
2018-04-12T12:20:37.125Z,38.30
2018-04-12T12:23:40.390Z,40.40
2018-04-12T12:26:42.807Z,42.80
2018-04-12T12:29:46.017Z,43.60
2018-04-12T12:32:48.470Z,43.07
2018-04-12T12:35:51.694Z,42.13
2018-04-12T12:38:54.152Z,41.43
2018-04-12T12:41:57.374Z,41.80
2018-04-12T12:45:13.438Z,43.20
2018-04-12T12:48:15.914Z,41.67
2018-04-12T12:51:19.204Z,41.23
2018-04-12T12:54:22.414Z,43.83
2018-04-12T12:57:24.869Z,41.50
2018-04-12T13:00:28.093Z,43.83
2018-04-12T13:03:30.549Z,35.73
2018-04-12T13:06:33.774Z,35.43
2018-04-12T13:09:36.226Z,38.77
2018-04-12T13:12:39.446Z,34.73
2018-04-12T13:15:41.898Z,36.80
2018-04-12T13:18:45.118Z,34.63
2018-04-12T13:21:47.585Z,33.43
2018-04-12T13:24:50.034Z,31.60
2018-04-12T13:27:53.254Z,34.60
2018-04-12T13:30:55.704Z,33.20
2018-04-12T13:33:58.930Z,34.93
2018-04-12T13:37:01.390Z,32.37
2018-04-12T13:40:03.841Z,34.40
2018-04-12T13:43:06.311Z,35.00
2018-04-12T13:46:08.767Z,33.87
2018-04-12T13:49:11.217Z,34.03
2018-04-12T13:52:13.678Z,31.40
2018-04-12T13:55:16.154Z,31.87
2018-04-12T13:58:18.583Z,30.47
2018-04-12T14:01:21.031Z,34.80
2018-04-12T14:04:23.488Z,30.37
2018-04-12T14:07:33.695Z,31.93
2018-04-12T14:10:36.138Z,33.30
2018-04-12T14:13:38.602Z,30.10
2018-04-12T14:16:41.075Z,30.07
2018-04-12T14:19:43.522Z,29.00
2018-04-12T14:22:46.101Z,29.03
2018-04-12T14:25:48.533Z,31.97
2018-04-12T14:28:50.988Z,30.60
2018-04-12T14:31:53.445Z,29.30
2018-04-12T14:34:56.661Z,27.23
2018-04-12T14:37:59.135Z,24.87
2018-04-12T14:41:01.574Z,27.33
2018-04-12T14:44:04.033Z,27.90
2018-04-12T14:47:07.249Z,24.17
2018-04-12T14:50:10.469Z,21.03
2018-04-12T14:53:12.949Z,19.80
2018-04-12T14:56:15.398Z,20.43
2018-04-12T14:59:18.613Z,21.10
2018-04-12T15:02:21.066Z,19.83
2018-04-12T15:05:26.909Z,16.80
2018-04-12T15:08:29.370Z,22.93
2018-04-12T15:11:31.814Z,22.90
2018-04-12T15:14:34.261Z,18.83
2018-04-12T15:17:37.487Z,19.67
2018-04-12T15:20:39.944Z,19.17
2018-04-12T15:23:43.162Z,20.87
2018-04-12T15:26:45.609Z,22.47
2018-04-12T15:29:48.828Z,19.30
2018-04-12T15:32:51.293Z,20.50
2018-04-12T15:35:53.745Z,19.17
2018-04-12T15:38:56.970Z,21.37
2018-04-12T15:41:59.426Z,19.47
2018-04-12T15:45:02.646Z,17.60
2018-04-12T15:48:05.111Z,16.93
2018-04-12T15:51:07.554Z,16.63
2018-04-12T15:54:10.014Z,18.30
2018-04-12T15:57:13.430Z,17.07
2018-04-12T16:00:15.889Z,16.37
2018-04-12T16:03:18.342Z,15.97
2018-04-12T16:06:20.794Z,14.10
2018-04-12T16:09:23.249Z,16.93
2018-04-12T16:12:26.466Z,16.70
2018-04-12T16:15:28.925Z,17.90
2018-04-12T16:18:32.144Z,16.07
2018-04-12T16:21:34.593Z,18.57
2018-04-12T16:24:37.824Z,17.60
2018-04-12T16:27:40.274Z,20.23
2018-04-12T16:30:43.489Z,17.77
2018-04-12T16:33:45.951Z,16.93
2018-04-12T16:36:48.397Z,16.97
2018-04-12T16:39:50.858Z,17.03
2018-04-12T16:42:53.305Z,17.10
2018-04-12T16:45:55.763Z,18.57
2018-04-12T16:48:58.213Z,15.70
2018-04-12T16:52:01.425Z,15.07
2018-04-12T16:55:03.882Z,15.00
2018-04-12T16:58:07.098Z,16.53
2018-04-12T17:01:09.554Z,15.87
2018-04-12T17:04:12.785Z,15.47
2018-04-12T17:07:15.229Z,14.07
2018-04-12T17:10:18.453Z,15.03
2018-04-12T17:13:20.903Z,18.23
2018-04-12T17:16:24.130Z,15.27
2018-04-12T17:19:26.587Z,14.90
2018-04-12T17:22:29.029Z,14.73
2018-04-12T17:25:31.481Z,15.40
2018-04-12T17:28:33.933Z,15.07
2018-04-12T17:31:36.394Z,16.17
2018-04-12T17:34:38.849Z,15.70
2018-04-12T17:37:42.071Z,15.90
2018-04-12T17:40:44.521Z,15.50
2018-04-12T17:43:47.735Z,14.10
2018-04-12T17:46:50.189Z,14.27
2018-04-12T17:49:53.413Z,13.70
2018-04-12T17:52:55.853Z,16.03
2018-04-12T17:55:58.313Z,16.00
2018-04-12T17:59:00.767Z,14.17
2018-04-12T18:02:03.222Z,13.70
2018-04-12T18:05:05.678Z,16.83
2018-04-12T18:08:08.899Z,13.00
2018-04-12T18:11:11.365Z,13.43
2018-04-12T18:14:13.801Z,12.07
2018-04-12T18:17:17.773Z,15.27
2018-04-12T18:20:20.223Z,14.63
2018-04-12T18:23:22.666Z,13.53
2018-04-12T18:26:25.889Z,14.23
2018-04-12T18:29:28.333Z,11.83
2018-04-12T18:32:31.584Z,14.30
2018-04-12T18:35:34.774Z,15.90
2018-04-12T18:38:37.221Z,13.83
2018-04-12T18:41:40.441Z,12.20
2018-04-12T18:44:42.885Z,13.70
2018-04-12T18:47:46.105Z,14.07
2018-04-12T18:50:48.553Z,12.97
2018-04-12T18:53:51.775Z,13.13
2018-04-12T18:56:54.226Z,11.87
2018-04-12T18:59:57.452Z,9.77
2018-04-12T19:02:59.890Z,12.53
2018-04-12T19:06:02.341Z,13.00
2018-04-12T19:09:05.697Z,15.20
2018-04-12T19:12:08.149Z,11.93
2018-04-12T19:15:11.375Z,14.97
2018-04-12T19:18:13.814Z,9.27
2018-04-12T19:21:16.273Z,11.47
2018-04-12T19:24:18.713Z,10.27
2018-04-12T19:27:21.171Z,10.60
2018-04-12T19:30:23.621Z,15.33
2018-04-12T19:33:26.840Z,11.50
2018-04-12T19:36:29.289Z,11.73
2018-04-12T19:39:31.734Z,12.80
2018-04-12T19:42:34.186Z,10.83
2018-04-12T19:45:36.654Z,12.40
2018-04-12T19:48:39.105Z,10.70
2018-04-12T19:51:42.328Z,10.50
2018-04-12T19:54:44.766Z,14.13
2018-04-12T19:57:47.226Z,12.47
2018-04-12T20:00:49.669Z,14.60
2018-04-12T20:03:52.121Z,12.47
2018-04-12T20:06:54.569Z,13.40
2018-04-12T20:09:57.014Z,12.90
2018-04-12T20:12:59.466Z,10.47
2018-04-12T20:16:01.921Z,12.17
2018-04-12T20:19:04.361Z,8.03
2018-04-12T20:22:06.817Z,10.23
2018-04-12T20:25:09.265Z,9.37
2018-04-12T20:28:11.726Z,10.67
2018-04-12T20:31:14.941Z,11.10
2018-04-12T20:34:17.381Z,12.37
2018-04-12T20:37:24.561Z,11.13
2018-04-12T20:40:27.005Z,10.87
2018-04-12T20:43:29.463Z,11.43
2018-04-12T20:46:31.920Z,10.10
2018-04-12T20:49:34.357Z,11.93
2018-04-12T20:52:36.809Z,9.93
2018-04-12T20:55:39.261Z,12.03
2018-04-12T20:58:41.702Z,11.47
2018-04-12T21:01:44.922Z,9.80
2018-04-12T21:04:47.371Z,11.60
2018-04-12T21:07:50.599Z,10.73
2018-04-12T21:10:53.042Z,9.93
2018-04-12T21:13:56.266Z,11.20
2018-04-12T21:16:58.714Z,8.63
2018-04-12T21:20:01.917Z,11.77
2018-04-12T21:23:05.144Z,11.83
2018-04-12T21:26:07.597Z,9.27
2018-04-12T21:29:10.053Z,11.47
2018-04-12T21:32:12.514Z,10.30
2018-04-12T21:35:14.957Z,11.37
2018-04-12T21:38:17.405Z,9.37
2018-04-12T21:41:19.853Z,8.73
2018-04-12T21:44:22.306Z,9.33
2018-04-12T21:47:24.754Z,10.07
2018-04-12T21:50:27.202Z,11.17
2018-04-12T21:53:30.417Z,10.77
2018-04-12T21:56:32.873Z,9.37
2018-04-12T21:59:36.085Z,13.80
2018-04-12T22:02:38.545Z,9.80
2018-04-12T22:05:41.760Z,9.97
2018-04-12T22:08:44.205Z,11.70
2018-04-12T22:11:47.427Z,15.97
2018-04-12T22:14:49.868Z,9.97
2018-04-12T22:17:53.088Z,8.87
2018-04-12T22:20:56.344Z,10.43
2018-04-12T22:23:58.759Z,13.43
2018-04-12T22:27:01.210Z,9.77
2018-04-12T22:30:03.671Z,9.93
2018-04-12T22:33:06.165Z,10.73
2018-04-12T22:36:08.631Z,10.60
2018-04-12T22:39:11.094Z,8.10
2018-04-12T22:42:13.542Z,8.33
2018-04-12T22:45:15.985Z,9.03
2018-04-12T22:48:19.205Z,6.87
2018-04-12T22:51:21.650Z,8.57
2018-04-12T22:54:24.868Z,8.53
2018-04-12T22:57:27.317Z,7.53
2018-04-12T23:00:30.530Z,9.70
2018-04-12T23:03:32.982Z,8.13
2018-04-12T23:06:35.441Z,10.87
2018-04-12T23:09:37.882Z,7.77
2018-04-12T23:12:40.337Z,8.43
2018-04-12T23:15:42.777Z,5.90
2018-04-12T23:18:45.225Z,6.77
2018-04-12T23:21:47.676Z,5.67
2018-04-12T23:24:50.125Z,5.13
2018-04-12T23:27:52.568Z,6.80
2018-04-12T23:30:55.013Z,6.37
2018-04-12T23:33:57.462Z,6.63
2018-04-12T23:37:00.677Z,5.53
2018-04-12T23:40:03.163Z,4.63
2018-04-12T23:43:06.338Z,6.97
2018-04-12T23:46:08.781Z,4.73
2018-04-12T23:49:11.233Z,5.77
2018-04-12T23:52:13.681Z,5.23
2018-04-12T23:55:16.130Z,7.97
2018-04-12T23:58:19.343Z,4.77
